Private Wetterstation Sandau
Wetterdaten: Sonntag, 01.07.2012
Datum Zeit Temp. A. Feuchte A. Luftdruck Regen Wind Richtung Richtung Taupunkt Windchill
01.07.2012 00:01 22,1 C 64 % 1012,0 hPa 0,0 l/m 0,0 km/h (0 Bft) O-SO 112 15,0 C 22,1 C
01.07.2012 00:06 21,9 C 66 % 1012,3 hPa 0,0 l/m 1,1 km/h (1 Bft) S-SO 157 15,3 C 21,9 C
01.07.2012 00:11 21,9 C 68 % 1012,1 hPa 0,0 l/m 0,0 km/h (0 Bft) O 90 15,7 C 21,9 C
01.07.2012 00:16 21,6 C 69 % 1012,1 hPa 0,0 l/m 0,0 km/h (0 Bft) O-NO 67 15,7 C 21,6 C
01.07.2012 00:21 21,5 C 69 % 1012,1 hPa 0,0 l/m 0,0 km/h (0 Bft) O 90 15,6 C 21,5 C
01.07.2012 00:26 21,3 C 70 % 1012,2 hPa 0,0 l/m 0,0 km/h (0 Bft) O 90 15,6 C 21,3 C
01.07.2012 00:31 21,3 C 71 % 1012,1 hPa 0,0 l/m 1,8 km/h (1 Bft) O 90 15,8 C 21,3 C
01.07.2012 00:36 21,1 C 71 % 1012,0 hPa 0,0 l/m 0,0 km/h (0 Bft) O 90 15,6 C 21,1 C
01.07.2012 00:41 21,1 C 71 % 1012,1 hPa 0,0 l/m 0,0 km/h (0 Bft) O 90 15,6 C 21,1 C
01.07.2012 00:46 21,1 C 72 % 1012,0 hPa 0,0 l/m 0,0 km/h (0 Bft) O 90 15,8 C 21,1 C
01.07.2012 00:51 20,9 C 73 % 1011,8 hPa 0,0 l/m 2,2 km/h (1 Bft) O 90 15,9 C 20,9 C
01.07.2012 00:56 20,8 C 73 % 1011,7 hPa 0,0 l/m 2,9 km/h (1 Bft) O-NO 67 15,8 C 20,8 C
01.07.2012 01:01 20,6 C 72 % 1011,7 hPa 0,0 l/m 2,2 km/h (1 Bft) O 90 15,4 C 20,6 C
01.07.2012 01:06 20,5 C 73 % 1011,5 hPa 0,0 l/m 5,0 km/h (1 Bft) O-SO 112 15,5 C 20,5 C
01.07.2012 01:11 20,4 C 73 % 1011,3 hPa 0,0 l/m 4,3 km/h (1 Bft) O-NO 67 15,4 C 20,4 C
01.07.2012 01:16 20,3 C 73 % 1011,1 hPa 0,0 l/m 5,8 km/h (2 Bft) O-NO 67 15,3 C 20,3 C
01.07.2012 01:21 20,3 C 73 % 1011,0 hPa 0,0 l/m 2,9 km/h (1 Bft) O-NO 67 15,3 C 20,3 C
01.07.2012 01:26 20,3 C 72 % 1011,0 hPa 0,0 l/m 3,2 km/h (1 Bft) O-NO 67 15,1 C 20,3 C
01.07.2012 01:31 20,3 C 73 % 1010,9 hPa 0,0 l/m 2,5 km/h (1 Bft) O-NO 67 15,3 C 20,3 C
01.07.2012 01:36 20,3 C 73 % 1010,8 hPa 0,0 l/m 3,6 km/h (1 Bft) O-SO 112 15,3 C 20,3 C
01.07.2012 01:41 20,3 C 73 % 1010,9 hPa 0,0 l/m 4,0 km/h (1 Bft) O-NO 67 15,3 C 20,3 C
01.07.2012 01:46 20,3 C 73 % 1010,8 hPa 0,0 l/m 3,2 km/h (1 Bft) O 90 15,3 C 20,3 C
01.07.2012 01:51 20,3 C 73 % 1010,7 hPa 0,0 l/m 0,0 km/h (0 Bft) O-NO 67 15,3 C 20,3 C
01.07.2012 01:56 20,3 C 73 % 1010,6 hPa 0,0 l/m 0,0 km/h (0 Bft) O-NO 67 15,3 C 20,3 C
01.07.2012 02:01 20,2 C 73 % 1010,3 hPa 0,0 l/m 2,2 km/h (1 Bft) O 90 15,2 C 20,2 C
01.07.2012 02:06 20,2 C 73 % 1010,4 hPa 0,0 l/m 5,8 km/h (2 Bft) O-NO 67 15,2 C 20,2 C
01.07.2012 02:11 20,1 C 73 % 1010,6 hPa 0,0 l/m 0,0 km/h (0 Bft) O-NO 67 15,1 C 20,1 C
01.07.2012 02:16 20,2 C 73 % 1010,6 hPa 0,0 l/m 0,0 km/h (0 Bft) O 90 15,2 C 20,2 C
01.07.2012 02:21 20,2 C 73 % 1010,6 hPa 0,0 l/m 1,1 km/h (1 Bft) O-NO 67 15,2 C 20,2 C
01.07.2012 02:26 20,2 C 73 % 1010,5 hPa 0,0 l/m 1,4 km/h (1 Bft) O-NO 67 15,2 C 20,2 C
01.07.2012 02:31 20,1 C 73 % 1010,4 hPa 0,0 l/m 2,2 km/h (1 Bft) N-NO 22 15,1 C 20,1 C
01.07.2012 02:36 20,1 C 73 % 1010,4 hPa 0,0 l/m 2,2 km/h (1 Bft) O-NO 67 15,1 C 20,1 C
01.07.2012 02:41 20,1 C 73 % 1010,1 hPa 0,0 l/m 1,1 km/h (1 Bft) NO 45 15,1 C 20,1 C
01.07.2012 02:46 20,1 C 73 % 1009,9 hPa 0,0 l/m 0,0 km/h (0 Bft) N-NO 22 15,1 C 20,1 C
01.07.2012 02:51 20,1 C 73 % 1009,9 hPa 0,0 l/m 0,0 km/h (0 Bft) N-NO 22 15,1 C 20,1 C
01.07.2012 02:56 20,2 C 74 % 1010,1 hPa 0,0 l/m 0,0 km/h (0 Bft) N 360 15,4 C 20,2 C
01.07.2012 03:01 20,3 C 74 % 1010,2 hPa 0,0 l/m 0,0 km/h (0 Bft) N 360 15,5 C 20,3 C
01.07.2012 03:06 20,4 C 74 % 1010,7 hPa 0,0 l/m 0,0 km/h (0 Bft) W 270 15,6 C 20,4 C
01.07.2012 03:11 20,4 C 74 % 1010,8 hPa 0,0 l/m 3,6 km/h (1 Bft) W-NW 292 15,6 C 20,4 C
01.07.2012 03:16 20,4 C 74 % 1010,6 hPa 0,0 l/m 0,0 km/h (0 Bft) NW 315 15,6 C 20,4 C
01.07.2012 03:21 20,4 C 75 % 1011,3 hPa 0,0 l/m 2,2 km/h (1 Bft) S-SO 157 15,8 C 20,4 C
01.07.2012 03:26 20,4 C 76 % 1012,5 hPa 0,0 l/m 25,6 km/h (4 Bft) S-SO 157 16,0 C 20,4 C
01.07.2012 03:31 20,3 C 77 % 1013,9 hPa 3,6 l/m 20,9 km/h (4 Bft) W-SW 247 16,1 C 20,3 C
01.07.2012 03:36 20,0 C 79 % 1014,0 hPa 10,9 l/m 14,8 km/h (3 Bft) SW 225 16,2 C 20,0 C
01.07.2012 03:41 19,7 C 81 % 1013,5 hPa 3,6 l/m 2,2 km/h (1 Bft) W 270 16,3 C 19,7 C
01.07.2012 03:46 19,6 C 82 % 1013,5 hPa 1,0 l/m 15,5 km/h (3 Bft) W 270 16,4 C 19,6 C
01.07.2012 03:51 19,5 C 82 % 1013,3 hPa 0,5 l/m 11,9 km/h (2 Bft) W-SW 247 16,3 C 19,5 C
01.07.2012 03:56 19,4 C 83 % 1012,8 hPa 0,5 l/m 5,0 km/h (1 Bft) NW 315 16,4 C 19,4 C
01.07.2012 04:01 19,3 C 83 % 1012,1 hPa 0,5 l/m 0,0 km/h (0 Bft) O-NO 67 16,3 C 19,3 C
01.07.2012 04:06 19,3 C 84 % 1011,6 hPa 0,0 l/m 4,3 km/h (1 Bft) O 90 16,5 C 19,3 C
01.07.2012 04:11 19,2 C 84 % 1011,7 hPa 0,5 l/m 1,8 km/h (1 Bft) SO 135 16,4 C 19,2 C
01.07.2012 04:16 19,1 C 85 % 1011,0 hPa 0,0 l/m 4,7 km/h (1 Bft) O-SO 112 16,5 C 19,1 C
01.07.2012 04:21 19,0 C 86 % 1010,5 hPa 0,5 l/m 9,4 km/h (2 Bft) O-SO 112 16,6 C 19,0 C
01.07.2012 04:26 18,9 C 86 % 1010,5 hPa 0,0 l/m 10,4 km/h (2 Bft) O 90 16,5 C 18,9 C
01.07.2012 04:31 18,8 C 87 % 1010,5 hPa 0,0 l/m 6,1 km/h (2 Bft) O-SO 112 16,6 C 18,8 C
01.07.2012 04:36 18,8 C 87 % 1010,7 hPa 0,0 l/m 5,4 km/h (1 Bft) O-SO 112 16,6 C 18,8 C
01.07.2012 04:41 18,8 C 87 % 1010,8 hPa 0,0 l/m 9,4 km/h (2 Bft) S-SO 157 16,6 C 18,8 C
01.07.2012 04:46 18,8 C 87 % 1010,7 hPa 0,0 l/m 6,8 km/h (2 Bft) O-SO 112 16,6 C 18,8 C
01.07.2012 04:51 18,8 C 87 % 1010,7 hPa 0,0 l/m 9,0 km/h (2 Bft) SO 135 16,6 C 18,8 C
01.07.2012 04:56 18,7 C 87 % 1010,8 hPa 0,0 l/m 7,2 km/h (2 Bft) SO 135 16,5 C 18,7 C
01.07.2012 05:01 18,7 C 88 % 1010,8 hPa 0,0 l/m 4,0 km/h (1 Bft) O 90 16,7 C 18,7 C
01.07.2012 05:06 18,6 C 88 % 1010,9 hPa 0,0 l/m 0,0 km/h (0 Bft) O 90 16,6 C 18,6 C
01.07.2012 05:11 18,7 C 88 % 1011,2 hPa 0,0 l/m 0,0 km/h (0 Bft) W-NW 292 16,7 C 18,7 C
01.07.2012 05:16 18,8 C 88 % 1011,1 hPa 0,0 l/m 0,0 km/h (0 Bft) N-NO 22 16,8 C 18,8 C
01.07.2012 05:21 18,8 C 88 % 1011,2 hPa 0,0 l/m 3,6 km/h (1 Bft) O 90 16,8 C 18,8 C
01.07.2012 05:26 18,8 C 88 % 1011,3 hPa 0,0 l/m 1,4 km/h (1 Bft) SO 135 16,8 C 18,8 C
01.07.2012 05:31 18,9 C 88 % 1011,3 hPa 0,0 l/m 0,0 km/h (0 Bft) S-SO 157 16,9 C 18,9 C
01.07.2012 05:36 18,9 C 88 % 1011,3 hPa 0,0 l/m 0,0 km/h (0 Bft) S-SO 157 16,9 C 18,9 C
01.07.2012 05:41 19,0 C 88 % 1011,3 hPa 0,0 l/m 3,2 km/h (1 Bft) S-SO 157 17,0 C 19,0 C
01.07.2012 05:46 19,1 C 88 % 1011,4 hPa 0,0 l/m 2,5 km/h (1 Bft) S-SO 157 17,1 C 19,1 C
01.07.2012 05:51 19,1 C 88 % 1011,5 hPa 0,0 l/m 4,3 km/h (1 Bft) S 180 17,1 C 19,1 C
01.07.2012 05:56 19,2 C 87 % 1011,4 hPa 0,0 l/m 0,0 km/h (0 Bft) S-SO 157 17,0 C 19,2 C
01.07.2012 06:01 19,2 C 87 % 1011,2 hPa 0,0 l/m 2,2 km/h (1 Bft) S 180 17,0 C 19,2 C
01.07.2012 06:06 19,3 C 87 % 1011,1 hPa 0,0 l/m 2,2 km/h (1 Bft) SW 225 17,1 C 19,3 C
01.07.2012 06:11 19,3 C 87 % 1011,0 hPa 0,0 l/m 2,2 km/h (1 Bft) S 180 17,1 C 19,3 C
01.07.2012 06:16 19,3 C 87 % 1010,8 hPa 0,0 l/m 1,4 km/h (1 Bft) SO 135 17,1 C 19,3 C
01.07.2012 06:21 19,4 C 86 % 1010,7 hPa 0,0 l/m 0,0 km/h (0 Bft) S 180 17,0 C 19,4 C
01.07.2012 06:26 19,4 C 86 % 1010,6 hPa 0,0 l/m 3,2 km/h (1 Bft) S-SO 157 17,0 C 19,4 C
01.07.2012 06:31 19,6 C 87 % 1010,8 hPa 0,0 l/m 3,2 km/h (1 Bft) S-SW 202 17,4 C 19,6 C
01.07.2012 06:36 19,8 C 87 % 1010,7 hPa 0,0 l/m 2,5 km/h (1 Bft) S-SW 202 17,6 C 19,8 C
01.07.2012 06:41 20,1 C 87 % 1010,8 hPa 0,0 l/m 3,2 km/h (1 Bft) S-SW 202 17,9 C 20,1 C
01.07.2012 06:46 20,2 C 86 % 1011,1 hPa 0,0 l/m 5,8 km/h (2 Bft) S 180 17,8 C 20,2 C
01.07.2012 06:51 20,2 C 85 % 1011,2 hPa 0,0 l/m 1,4 km/h (1 Bft) W-SW 247 17,6 C 20,2 C
01.07.2012 06:56 20,3 C 85 % 1011,2 hPa 0,0 l/m 2,2 km/h (1 Bft) SW 225 17,7 C 20,3 C
01.07.2012 07:01 20,5 C 85 % 1011,4 hPa 0,0 l/m 5,4 km/h (1 Bft) SW 225 17,9 C 20,5 C
01.07.2012 07:06 20,8 C 85 % 1011,5 hPa 0,0 l/m 5,8 km/h (2 Bft) W 270 18,2 C 20,8 C
01.07.2012 07:11 20,9 C 85 % 1011,7 hPa 0,0 l/m 3,2 km/h (1 Bft) W 270 18,3 C 20,9 C
01.07.2012 07:16 21,1 C 84 % 1011,6 hPa 0,0 l/m 6,1 km/h (2 Bft) S 180 18,3 C 21,1 C
01.07.2012 07:21 21,2 C 83 % 1011,7 hPa 0,0 l/m 4,7 km/h (1 Bft) W 270 18,2 C 21,2 C
01.07.2012 07:26 21,2 C 83 % 1011,9 hPa 0,0 l/m 2,5 km/h (1 Bft) SW 225 18,2 C 21,2 C
01.07.2012 07:31 21,3 C 83 % 1012,1 hPa 0,0 l/m 6,1 km/h (2 Bft) S 180 18,3 C 21,3 C
01.07.2012 07:36 21,5 C 83 % 1012,2 hPa 0,0 l/m 5,0 km/h (1 Bft) S 180 18,5 C 21,5 C
01.07.2012 07:41 21,4 C 83 % 1012,3 hPa 0,0 l/m 3,6 km/h (1 Bft) W-NW 292 18,4 C 21,4 C
01.07.2012 07:46 21,4 C 82 % 1012,2 hPa 0,0 l/m 5,0 km/h (1 Bft) SW 225 18,2 C 21,4 C
01.07.2012 07:51 21,3 C 83 % 1012,2 hPa 0,0 l/m 3,6 km/h (1 Bft) SW 225 18,3 C 21,3 C
01.07.2012 07:56 21,3 C 82 % 1012,4 hPa 0,0 l/m 5,8 km/h (2 Bft) S-SW 202 18,1 C 21,3 C
01.07.2012 08:01 21,3 C 82 % 1012,6 hPa 0,0 l/m 4,0 km/h (1 Bft) SW 225 18,1 C 21,3 C
01.07.2012 08:06 21,4 C 83 % 1012,6 hPa 0,0 l/m 3,2 km/h (1 Bft) S-SW 202 18,4 C 21,4 C
01.07.2012 08:11 21,5 C 83 % 1012,4 hPa 0,0 l/m 6,8 km/h (2 Bft) SW 225 18,5 C 21,5 C
01.07.2012 08:16 21,8 C 83 % 1012,5 hPa 0,0 l/m 8,3 km/h (2 Bft) S 180 18,8 C 21,8 C
01.07.2012 08:21 21,9 C 81 % 1012,4 hPa 0,0 l/m 10,4 km/h (2 Bft) S-SW 202 18,5 C 21,9 C
01.07.2012 08:26 22,1 C 81 % 1012,1 hPa 0,0 l/m 4,3 km/h (1 Bft) W-SW 247 18,7 C 22,1 C
01.07.2012 08:31 22,3 C 80 % 1012,2 hPa 0,0 l/m 4,3 km/h (1 Bft) S-SO 157 18,7 C 22,3 C
01.07.2012 08:36 22,6 C 79 % 1012,4 hPa 0,0 l/m 2,2 km/h (1 Bft) S-SW 202 18,8 C 22,6 C
01.07.2012 08:41 22,8 C 79 % 1012,4 hPa 0,0 l/m 7,2 km/h (2 Bft) SW 225 19,0 C 22,8 C
01.07.2012 08:46 22,9 C 78 % 1012,5 hPa 0,0 l/m 5,8 km/h (2 Bft) W 270 18,9 C 22,9 C
01.07.2012 08:51 22,9 C 77 % 1012,5 hPa 0,0 l/m 10,4 km/h (2 Bft) SW 225 18,6 C 22,9 C
01.07.2012 08:56 22,9 C 76 % 1012,6 hPa 0,0 l/m 14,4 km/h (3 Bft) W 270 18,4 C 22,9 C
01.07.2012 09:01 22,9 C 76 % 1012,6 hPa 0,0 l/m 12,6 km/h (3 Bft) W-SW 247 18,4 C 22,9 C
01.07.2012 09:06 22,8 C 76 % 1012,6 hPa 0,0 l/m 3,6 km/h (1 Bft) W 270 18,3 C 22,8 C
01.07.2012 09:11 22,7 C 75 % 1012,7 hPa 0,0 l/m 6,1 km/h (2 Bft) S-SW 202 18,0 C 22,7 C
01.07.2012 09:16 22,5 C 75 % 1012,8 hPa 0,0 l/m 6,5 km/h (2 Bft) W-NW 292 17,8 C 22,5 C
01.07.2012 09:21 22,4 C 75 % 1012,8 hPa 0,0 l/m 7,6 km/h (2 Bft) W-SW 247 17,7 C 22,4 C
01.07.2012 09:26 22,3 C 76 % 1012,8 hPa 0,0 l/m 6,8 km/h (2 Bft) W 270 17,9 C 22,3 C
01.07.2012 09:31 22,2 C 75 % 1012,8 hPa 0,0 l/m 11,2 km/h (2 Bft) W-SW 247 17,5 C 22,2 C
01.07.2012 09:36 22,2 C 75 % 1013,0 hPa 0,0 l/m 6,5 km/h (2 Bft) W 270 17,5 C 22,2 C
01.07.2012 09:41 22,1 C 75 % 1012,8 hPa 0,0 l/m 6,1 km/h (2 Bft) W 270 17,5 C 22,1 C
01.07.2012 09:46 21,9 C 75 % 1012,7 hPa 0,0 l/m 9,4 km/h (2 Bft) W 270 17,3 C 21,9 C
01.07.2012 09:51 22,1 C 76 % 1012,8 hPa 0,0 l/m 10,8 km/h (2 Bft) W-NW 292 17,7 C 22,1 C
01.07.2012 09:56 22,1 C 76 % 1012,9 hPa 0,0 l/m 3,6 km/h (1 Bft) W 270 17,7 C 22,1 C
01.07.2012 10:01 22,3 C 75 % 1013,1 hPa 0,0 l/m 6,1 km/h (2 Bft) W 270 17,6 C 22,3 C
01.07.2012 10:06 22,3 C 73 % 1013,0 hPa 0,0 l/m 15,8 km/h (3 Bft) W-NW 292 17,2 C 22,3 C
01.07.2012 10:11 22,3 C 73 % 1013,2 hPa 0,0 l/m 8,3 km/h (2 Bft) SW 225 17,2 C 22,3 C
01.07.2012 10:16 22,3 C 73 % 1013,3 hPa 0,0 l/m 7,2 km/h (2 Bft) W-NW 292 17,2 C 22,3 C
01.07.2012 10:21 22,3 C 73 % 1013,2 hPa 0,0 l/m 10,1 km/h (2 Bft) W-NW 292 17,2 C 22,3 C
01.07.2012 10:26 22,3 C 73 % 1013,4 hPa 0,0 l/m 4,3 km/h (1 Bft) W-NW 292 17,2 C 22,3 C
01.07.2012 10:31 22,4 C 73 % 1013,4 hPa 0,0 l/m 14,0 km/h (3 Bft) W-NW 292 17,3 C 22,4 C
01.07.2012 10:36 22,4 C 73 % 1013,5 hPa 0,0 l/m 4,7 km/h (1 Bft) W 270 17,3 C 22,4 C
01.07.2012 10:41 22,4 C 72 % 1013,6 hPa 0,0 l/m 9,4 km/h (2 Bft) W 270 17,1 C 22,4 C
01.07.2012 10:46 22,4 C 72 % 1013,5 hPa 0,0 l/m 1,8 km/h (1 Bft) W-SW 247 17,1 C 22,4 C
01.07.2012 10:51 22,5 C 71 % 1013,7 hPa 0,0 l/m 8,6 km/h (2 Bft) W-SW 247 17,0 C 22,5 C
01.07.2012 10:56 22,6 C 71 % 1013,7 hPa 0,0 l/m 6,1 km/h (2 Bft) W-SW 247 17,1 C 22,6 C
01.07.2012 11:01 22,9 C 69 % 1014,0 hPa 0,0 l/m 11,2 km/h (2 Bft) W 270 16,9 C 22,9 C
01.07.2012 11:06 22,8 C 69 % 1014,3 hPa 0,0 l/m 10,8 km/h (2 Bft) W 270 16,8 C 22,8 C
01.07.2012 11:11 22,7 C 69 % 1014,4 hPa 0,0 l/m 11,9 km/h (2 Bft) W 270 16,7 C 22,7 C
01.07.2012 11:16 22,5 C 69 % 1014,6 hPa 0,0 l/m 6,1 km/h (2 Bft) W-SW 247 16,5 C 22,5 C
01.07.2012 11:21 22,4 C 69 % 1014,6 hPa 0,0 l/m 9,0 km/h (2 Bft) W 270 16,4 C 22,4 C
01.07.2012 11:26 22,3 C 69 % 1014,5 hPa 0,0 l/m 6,5 km/h (2 Bft) W 270 16,3 C 22,3 C
01.07.2012 11:31 22,4 C 69 % 1014,5 hPa 0,0 l/m 11,9 km/h (2 Bft) W 270 16,4 C 22,4 C
01.07.2012 11:36 22,4 C 69 % 1014,6 hPa 0,0 l/m 8,3 km/h (2 Bft) NW 315 16,4 C 22,4 C
01.07.2012 11:41 22,4 C 69 % 1014,7 hPa 0,0 l/m 6,5 km/h (2 Bft) W-NW 292 16,4 C 22,4 C
01.07.2012 11:46 22,4 C 69 % 1014,2 hPa 0,0 l/m 22,0 km/h (4 Bft) W-SW 247 16,4 C 22,4 C
01.07.2012 11:51 22,6 C 69 % 1014,2 hPa 0,0 l/m 15,1 km/h (3 Bft) W-SW 247 16,6 C 22,6 C
01.07.2012 11:56 22,6 C 69 % 1014,5 hPa 0,0 l/m 14,4 km/h (3 Bft) SW 225 16,6 C 22,6 C
01.07.2012 12:01 22,6 C 69 % 1014,5 hPa 0,0 l/m 14,0 km/h (3 Bft) SW 225 16,6 C 22,6 C
01.07.2012 12:06 22,7 C 69 % 1014,9 hPa 0,0 l/m 20,9 km/h (4 Bft) W 270 16,7 C 22,7 C
01.07.2012 12:11 22,6 C 67 % 1015,2 hPa 0,0 l/m 13,7 km/h (3 Bft) W-SW 247 16,2 C 22,6 C
01.07.2012 12:16 22,5 C 67 % 1015,3 hPa 0,0 l/m 7,6 km/h (2 Bft) W-SW 247 16,1 C 22,5 C
01.07.2012 12:21 22,4 C 67 % 1015,4 hPa 0,0 l/m 5,0 km/h (1 Bft) W-NW 292 16,0 C 22,4 C
01.07.2012 12:26 22,3 C 67 % 1015,3 hPa 0,0 l/m 10,8 km/h (2 Bft) W-SW 247 15,9 C 22,3 C
01.07.2012 12:31 22,4 C 68 % 1015,6 hPa 0,0 l/m 7,9 km/h (2 Bft) W-SW 247 16,2 C 22,4 C
01.07.2012 12:36 22,3 C 68 % 1015,8 hPa 0,0 l/m 15,5 km/h (3 Bft) W-NW 292 16,1 C 22,3 C
01.07.2012 12:41 22,2 C 68 % 1015,8 hPa 0,0 l/m 11,9 km/h (2 Bft) SW 225 16,0 C 22,2 C
01.07.2012 12:46 22,1 C 68 % 1015,8 hPa 0,0 l/m 9,0 km/h (2 Bft) W 270 15,9 C 22,1 C
01.07.2012 12:51 22,1 C 68 % 1015,7 hPa 0,0 l/m 10,4 km/h (2 Bft) W 270 15,9 C 22,1 C
01.07.2012 12:56 22,2 C 68 % 1015,9 hPa 0,0 l/m 16,9 km/h (3 Bft) W-SW 247 16,0 C 22,2 C
01.07.2012 13:01 22,4 C 69 % 1016,0 hPa 0,0 l/m 15,5 km/h (3 Bft) W-SW 247 16,4 C 22,4 C
01.07.2012 13:06 22,5 C 68 % 1016,1 hPa 0,0 l/m 11,2 km/h (2 Bft) W 270 16,3 C 22,5 C
01.07.2012 13:11 22,6 C 67 % 1016,0 hPa 0,0 l/m 13,7 km/h (3 Bft) W-SW 247 16,2 C 22,6 C
01.07.2012 13:16 22,8 C 66 % 1016,1 hPa 0,0 l/m 8,6 km/h (2 Bft) W-NW 292 16,1 C 22,8 C
01.07.2012 13:21 22,7 C 64 % 1016,3 hPa 0,0 l/m 20,9 km/h (4 Bft) W-SW 247 15,5 C 22,7 C
01.07.2012 13:26 22,6 C 65 % 1016,3 hPa 0,0 l/m 11,9 km/h (2 Bft) W 270 15,7 C 22,6 C
01.07.2012 13:31 22,6 C 65 % 1016,4 hPa 0,0 l/m 7,6 km/h (2 Bft) W-SW 247 15,7 C 22,6 C
01.07.2012 13:36 22,6 C 65 % 1016,4 hPa 0,0 l/m 14,0 km/h (3 Bft) W-SW 247 15,7 C 22,6 C
01.07.2012 13:41 22,8 C 64 % 1016,4 hPa 0,0 l/m 6,1 km/h (2 Bft) SW 225 15,6 C 22,8 C
01.07.2012 13:46 22,9 C 64 % 1016,4 hPa 0,0 l/m 11,5 km/h (2 Bft) SW 225 15,7 C 22,9 C
01.07.2012 13:51 23,0 C 64 % 1016,5 hPa 0,0 l/m 9,4 km/h (2 Bft) W 270 15,8 C 23,0 C
01.07.2012 13:56 23,1 C 64 % 1016,4 hPa 0,0 l/m 12,6 km/h (3 Bft) W 270 15,9 C 23,1 C
01.07.2012 14:01 23,1 C 63 % 1016,3 hPa 0,0 l/m 17,6 km/h (3 Bft) W 270 15,7 C 23,1 C
01.07.2012 14:06 23,1 C 62 % 1016,2 hPa 0,0 l/m 11,5 km/h (2 Bft) W 270 15,4 C 23,1 C
01.07.2012 14:11 23,2 C 62 % 1016,1 hPa 0,0 l/m 3,6 km/h (1 Bft) W 270 15,5 C 23,2 C
01.07.2012 14:16 23,3 C 62 % 1016,0 hPa 0,0 l/m 5,0 km/h (1 Bft) SW 225 15,6 C 23,3 C
01.07.2012 14:21 23,5 C 62 % 1015,9 hPa 0,0 l/m 9,0 km/h (2 Bft) SW 225 15,8 C 23,5 C
01.07.2012 14:26 23,7 C 62 % 1016,2 hPa 0,0 l/m 8,3 km/h (2 Bft) W-SW 247 16,0 C 23,7 C
01.07.2012 14:31 23,8 C 61 % 1016,1 hPa 0,0 l/m 9,0 km/h (2 Bft) W-SW 247 15,8 C 23,8 C
01.07.2012 14:36 23,8 C 61 % 1016,1 hPa 0,0 l/m 7,9 km/h (2 Bft) S-SW 202 15,8 C 23,8 C
01.07.2012 14:41 23,8 C 60 % 1015,8 hPa 0,0 l/m 11,2 km/h (2 Bft) W 270 15,6 C 23,8 C
01.07.2012 14:46 23,8 C 60 % 1015,7 hPa 0,0 l/m 5,0 km/h (1 Bft) W 270 15,6 C 23,8 C
01.07.2012 14:51 23,8 C 58 % 1015,6 hPa 0,0 l/m 4,7 km/h (1 Bft) W 270 15,0 C 23,8 C
01.07.2012 14:56 23,9 C 58 % 1015,7 hPa 0,0 l/m 4,0 km/h (1 Bft) W-NW 292 15,1 C 23,9 C
01.07.2012 15:01 24,3 C 57 % 1015,7 hPa 0,0 l/m 8,6 km/h (2 Bft) W-SW 247 15,2 C 24,3 C
01.07.2012 15:06 24,3 C 56 % 1015,8 hPa 0,0 l/m 3,6 km/h (1 Bft) W 270 14,9 C 24,3 C
01.07.2012 15:11 24,5 C 56 % 1015,8 hPa 0,0 l/m 4,3 km/h (1 Bft) SW 225 15,1 C 24,5 C
01.07.2012 15:16 24,8 C 56 % 1015,8 hPa 0,0 l/m 6,1 km/h (2 Bft) SW 225 15,4 C 24,8 C
01.07.2012 15:21 24,8 C 55 % 1015,8 hPa 0,0 l/m 8,3 km/h (2 Bft) W 270 15,1 C 24,8 C
01.07.2012 15:26 24,8 C 55 % 1015,7 hPa 0,0 l/m 7,6 km/h (2 Bft) W 270 15,1 C 24,8 C
01.07.2012 15:31 24,7 C 55 % 1015,8 hPa 0,0 l/m 3,6 km/h (1 Bft) NW 315 15,0 C 24,7 C
01.07.2012 15:36 24,8 C 54 % 1015,8 hPa 0,0 l/m 5,0 km/h (1 Bft) W-SW 247 14,8 C 24,8 C
01.07.2012 15:41 24,9 C 55 % 1015,8 hPa 0,0 l/m 10,1 km/h (2 Bft) W-SW 247 15,2 C 24,9 C
01.07.2012 15:46 25,1 C 53 % 1015,8 hPa 0,0 l/m 10,4 km/h (2 Bft) S-SW 202 14,8 C 25,1 C
01.07.2012 15:51 25,0 C 53 % 1015,8 hPa 0,0 l/m 10,1 km/h (2 Bft) NW 315 14,7 C 25,0 C
01.07.2012 15:56 24,9 C 53 % 1016,0 hPa 0,0 l/m 12,2 km/h (2 Bft) W-NW 292 14,6 C 24,9 C
01.07.2012 16:01 24,9 C 53 % 1016,0 hPa 0,0 l/m 2,5 km/h (1 Bft) W-NW 292 14,6 C 24,9 C
01.07.2012 16:06 24,9 C 53 % 1016,0 hPa 0,0 l/m 6,1 km/h (2 Bft) W 270 14,6 C 24,9 C
01.07.2012 16:11 24,9 C 52 % 1016,1 hPa 0,0 l/m 11,9 km/h (2 Bft) W-SW 247 14,4 C 24,9 C
01.07.2012 16:16 24,9 C 51 % 1016,1 hPa 0,0 l/m 10,1 km/h (2 Bft) W-SW 247 14,1 C 24,9 C
01.07.2012 16:21 25,0 C 52 % 1015,9 hPa 0,0 l/m 6,1 km/h (2 Bft) W-NW 292 14,4 C 25,0 C
01.07.2012 16:26 25,1 C 52 % 1016,2 hPa 0,0 l/m 8,3 km/h (2 Bft) SW 225 14,5 C 25,1 C
01.07.2012 16:31 25,1 C 51 % 1016,3 hPa 0,0 l/m 9,7 km/h (2 Bft) W-SW 247 14,2 C 25,1 C
01.07.2012 16:36 24,9 C 52 % 1016,4 hPa 0,0 l/m 12,2 km/h (2 Bft) W-SW 247 14,4 C 24,9 C
01.07.2012 16:41 24,7 C 52 % 1016,2 hPa 0,0 l/m 8,3 km/h (2 Bft) W-NW 292 14,2 C 24,7 C
01.07.2012 16:46 24,5 C 52 % 1016,1 hPa 0,0 l/m 5,8 km/h (2 Bft) W-SW 247 14,0 C 24,5 C
01.07.2012 16:51 24,5 C 52 % 1016,2 hPa 0,0 l/m 7,2 km/h (2 Bft) W 270 14,0 C 24,5 C
01.07.2012 16:56 24,7 C 52 % 1016,2 hPa 0,0 l/m 9,4 km/h (2 Bft) W-SW 247 14,2 C 24,7 C
01.07.2012 17:01 24,9 C 53 % 1016,3 hPa 0,0 l/m 7,9 km/h (2 Bft) W-NW 292 14,6 C 24,9 C
01.07.2012 17:06 24,9 C 52 % 1016,2 hPa 0,0 l/m 16,6 km/h (3 Bft) W-NW 292 14,4 C 24,9 C
01.07.2012 17:11 24,9 C 52 % 1016,0 hPa 0,0 l/m 4,0 km/h (1 Bft) W 270 14,4 C 24,9 C
01.07.2012 17:16 25,1 C 52 % 1015,9 hPa 0,0 l/m 8,3 km/h (2 Bft) W 270 14,5 C 25,1 C
01.07.2012 17:21 25,1 C 52 % 1016,1 hPa 0,0 l/m 5,0 km/h (1 Bft) W 270 14,5 C 25,1 C
01.07.2012 17:26 24,8 C 53 % 1016,1 hPa 0,0 l/m 10,1 km/h (2 Bft) W-SW 247 14,6 C 24,8 C
01.07.2012 17:31 24,6 C 53 % 1016,2 hPa 0,0 l/m 9,7 km/h (2 Bft) SW 225 14,4 C 24,6 C
01.07.2012 17:36 24,3 C 52 % 1016,4 hPa 0,0 l/m 11,2 km/h (2 Bft) W 270 13,8 C 24,3 C
01.07.2012 17:41 24,1 C 52 % 1016,3 hPa 0,0 l/m 3,6 km/h (1 Bft) W-NW 292 13,6 C 24,1 C
01.07.2012 17:46 24,1 C 52 % 1016,1 hPa 0,0 l/m 7,6 km/h (2 Bft) W 270 13,6 C 24,1 C
01.07.2012 17:51 23,9 C 53 % 1016,2 hPa 0,0 l/m 5,0 km/h (1 Bft) W-NW 292 13,7 C 23,9 C
01.07.2012 17:56 23,8 C 54 % 1016,2 hPa 0,0 l/m 3,2 km/h (1 Bft) W-SW 247 13,9 C 23,8 C
01.07.2012 18:01 23,8 C 54 % 1016,1 hPa 0,0 l/m 4,0 km/h (1 Bft) SW 225 13,9 C 23,8 C
01.07.2012 18:06 23,8 C 54 % 1015,9 hPa 0,0 l/m 9,7 km/h (2 Bft) W-SW 247 13,9 C 23,8 C
01.07.2012 18:11 23,8 C 54 % 1016,1 hPa 0,0 l/m 4,0 km/h (1 Bft) W-NW 292 13,9 C 23,8 C
01.07.2012 18:16 23,8 C 55 % 1016,3 hPa 0,0 l/m 5,8 km/h (2 Bft) W-SW 247 14,2 C 23,8 C
01.07.2012 18:21 23,6 C 54 % 1016,3 hPa 0,0 l/m 7,6 km/h (2 Bft) W-SW 247 13,7 C 23,6 C
01.07.2012 18:26 23,5 C 55 % 1016,4 hPa 0,0 l/m 6,5 km/h (2 Bft) SW 225 13,9 C 23,5 C
01.07.2012 18:31 23,3 C 55 % 1016,3 hPa 0,0 l/m 3,6 km/h (1 Bft) W-NW 292 13,7 C 23,3 C
01.07.2012 18:36 23,1 C 55 % 1016,4 hPa 0,0 l/m 14,4 km/h (3 Bft) W-NW 292 13,6 C 23,1 C
01.07.2012 18:41 22,9 C 56 % 1016,4 hPa 0,0 l/m 10,1 km/h (2 Bft) W-NW 292 13,6 C 22,9 C
01.07.2012 18:46 22,6 C 56 % 1016,4 hPa 0,0 l/m 5,0 km/h (1 Bft) SW 225 13,4 C 22,6 C
01.07.2012 18:51 22,5 C 57 % 1016,4 hPa 0,0 l/m 3,2 km/h (1 Bft) W 270 13,5 C 22,5 C
01.07.2012 18:56 22,4 C 57 % 1016,4 hPa 0,0 l/m 5,0 km/h (1 Bft) W-NW 292 13,5 C 22,4 C
01.07.2012 19:01 22,3 C 57 % 1016,4 hPa 0,0 l/m 3,6 km/h (1 Bft) W-NW 292 13,4 C 22,3 C
01.07.2012 19:06 22,3 C 58 % 1016,3 hPa 0,0 l/m 1,1 km/h (1 Bft) W-SW 247 13,6 C 22,3 C
01.07.2012 19:11 22,2 C 58 % 1016,3 hPa 0,0 l/m 4,0 km/h (1 Bft) W-SW 247 13,5 C 22,2 C
01.07.2012 19:16 22,1 C 59 % 1016,1 hPa 0,0 l/m 1,4 km/h (1 Bft) W 270 13,7 C 22,1 C
01.07.2012 19:21 22,1 C 59 % 1016,2 hPa 0,0 l/m 3,2 km/h (1 Bft) W 270 13,7 C 22,1 C
01.07.2012 19:26 21,9 C 59 % 1016,1 hPa 0,0 l/m 0,0 km/h (0 Bft) W-SW 247 13,5 C 21,9 C
01.07.2012 19:31 21,9 C 60 % 1016,4 hPa 0,0 l/m 7,6 km/h (2 Bft) W 270 13,8 C 21,9 C
01.07.2012 19:36 21,8 C 59 % 1016,4 hPa 0,0 l/m 7,6 km/h (2 Bft) W 270 13,4 C 21,8 C
01.07.2012 19:41 21,8 C 59 % 1016,6 hPa 0,0 l/m 4,7 km/h (1 Bft) W 270 13,4 C 21,8 C
01.07.2012 19:46 21,8 C 59 % 1016,5 hPa 0,0 l/m 4,3 km/h (1 Bft) W 270 13,4 C 21,8 C
01.07.2012 19:51 21,7 C 59 % 1016,4 hPa 0,0 l/m 5,8 km/h (2 Bft) W-SW 247 13,3 C 21,7 C
01.07.2012 19:56 21,6 C 59 % 1016,5 hPa 0,0 l/m 0,0 km/h (0 Bft) W 270 13,2 C 21,6 C
01.07.2012 20:01 21,6 C 59 % 1016,4 hPa 0,0 l/m 3,2 km/h (1 Bft) W-SW 247 13,2 C 21,6 C
01.07.2012 20:06 21,5 C 59 % 1016,5 hPa 0,0 l/m 3,2 km/h (1 Bft) W 270 13,1 C 21,5 C
01.07.2012 20:11 21,4 C 59 % 1016,7 hPa 0,0 l/m 8,3 km/h (2 Bft) W 270 13,0 C 21,4 C
01.07.2012 20:16 21,3 C 59 % 1016,8 hPa 0,0 l/m 9,4 km/h (2 Bft) W-SW 247 13,0 C 21,3 C
01.07.2012 20:21 21,2 C 60 % 1016,7 hPa 0,0 l/m 8,3 km/h (2 Bft) W-SW 247 13,1 C 21,2 C
01.07.2012 20:26 21,1 C 60 % 1016,8 hPa 0,0 l/m 7,9 km/h (2 Bft) W 270 13,0 C 21,1 C
01.07.2012 20:31 21,1 C 60 % 1017,3 hPa 0,0 l/m 8,6 km/h (2 Bft) W-SW 247 13,0 C 21,1 C
01.07.2012 20:36 20,9 C 60 % 1017,4 hPa 0,0 l/m 4,7 km/h (1 Bft) W 270 12,8 C 20,9 C
01.07.2012 20:41 20,9 C 61 % 1017,3 hPa 0,0 l/m 6,1 km/h (2 Bft) W-SW 247 13,1 C 20,9 C
01.07.2012 20:46 20,8 C 61 % 1017,5 hPa 0,0 l/m 4,3 km/h (1 Bft) W 270 13,0 C 20,8 C
01.07.2012 20:51 20,7 C 62 % 1017,5 hPa 0,0 l/m 6,5 km/h (2 Bft) SW 225 13,2 C 20,7 C
01.07.2012 20:56 20,5 C 62 % 1017,4 hPa 0,0 l/m 5,0 km/h (1 Bft) W 270 13,0 C 20,5 C
01.07.2012 21:01 20,3 C 64 % 1017,4 hPa 0,0 l/m 6,1 km/h (2 Bft) SW 225 13,3 C 20,3 C
01.07.2012 21:06 20,1 C 64 % 1017,4 hPa 0,0 l/m 2,5 km/h (1 Bft) W-SW 247 13,1 C 20,1 C
01.07.2012 21:11 20,1 C 65 % 1017,5 hPa 0,0 l/m 4,0 km/h (1 Bft) W 270 13,3 C 20,1 C
01.07.2012 21:16 19,9 C 66 % 1017,8 hPa 0,0 l/m 8,6 km/h (2 Bft) W 270 13,4 C 19,9 C
01.07.2012 21:21 19,9 C 67 % 1018,0 hPa 0,0 l/m 7,2 km/h (2 Bft) W-SW 247 13,6 C 19,9 C
01.07.2012 21:26 19,9 C 68 % 1017,9 hPa 0,0 l/m 0,0 km/h (0 Bft) W-SW 247 13,8 C 19,9 C
01.07.2012 21:31 19,8 C 69 % 1018,0 hPa 0,0 l/m 3,6 km/h (1 Bft) S-SW 202 13,9 C 19,8 C
01.07.2012 21:36 19,8 C 69 % 1018,0 hPa 0,0 l/m 6,8 km/h (2 Bft) SW 225 13,9 C 19,8 C
01.07.2012 21:41 19,6 C 69 % 1018,1 hPa 0,0 l/m 6,5 km/h (2 Bft) W-SW 247 13,8 C 19,6 C
01.07.2012 21:46 19,5 C 69 % 1018,1 hPa 0,0 l/m 2,2 km/h (1 Bft) W 270 13,7 C 19,5 C
01.07.2012 21:51 19,4 C 70 % 1018,1 hPa 0,0 l/m 5,8 km/h (2 Bft) W 270 13,8 C 19,4 C
01.07.2012 21:56 19,4 C 69 % 1018,2 hPa 0,0 l/m 0,0 km/h (0 Bft) W-SW 247 13,6 C 19,4 C
01.07.2012 22:01 19,4 C 69 % 1018,2 hPa 0,0 l/m 0,0 km/h (0 Bft) W 270 13,6 C 19,4 C
01.07.2012 22:06 19,3 C 70 % 1018,3 hPa 0,0 l/m 2,9 km/h (1 Bft) W-SW 247 13,7 C 19,3 C
01.07.2012 22:11 19,3 C 70 % 1018,3 hPa 0,0 l/m 4,7 km/h (1 Bft) W-SW 247 13,7 C 19,3 C
01.07.2012 22:16 19,3 C 70 % 1018,3 hPa 0,0 l/m 9,0 km/h (2 Bft) W-SW 247 13,7 C 19,3 C
01.07.2012 22:21 19,2 C 70 % 1018,4 hPa 0,0 l/m 3,6 km/h (1 Bft) W-NW 292 13,6 C 19,2 C
01.07.2012 22:26 19,0 C 70 % 1018,4 hPa 0,0 l/m 0,0 km/h (0 Bft) W-NW 292 13,4 C 19,0 C
01.07.2012 22:31 18,9 C 70 % 1018,5 hPa 0,0 l/m 4,0 km/h (1 Bft) W-NW 292 13,3 C 18,9 C
01.07.2012 22:36 18,8 C 71 % 1018,6 hPa 0,0 l/m 1,4 km/h (1 Bft) W 270 13,4 C 18,8 C
01.07.2012 22:41 18,8 C 71 % 1018,8 hPa 0,0 l/m 0,0 km/h (0 Bft) W 270 13,4 C 18,8 C
01.07.2012 22:46 18,6 C 71 % 1018,9 hPa 0,0 l/m 3,6 km/h (1 Bft) W-NW 292 13,2 C 18,6 C
01.07.2012 22:51 18,4 C 71 % 1018,7 hPa 0,0 l/m 2,9 km/h (1 Bft) W 270 13,0 C 18,4 C
01.07.2012 22:56 18,4 C 72 % 1018,7 hPa 0,0 l/m 0,0 km/h (0 Bft) W 270 13,3 C 18,4 C
01.07.2012 23:01 18,4 C 72 % 1019,0 hPa 0,0 l/m 1,1 km/h (1 Bft) NW 315 13,3 C 18,4 C
01.07.2012 23:06 18,3 C 72 % 1019,2 hPa 0,0 l/m 1,8 km/h (1 Bft) W 270 13,2 C 18,3 C
01.07.2012 23:11 18,1 C 73 % 1019,3 hPa 0,0 l/m 1,8 km/h (1 Bft) W 270 13,2 C 18,1 C
01.07.2012 23:16 18,1 C 73 % 1019,4 hPa 0,0 l/m 3,6 km/h (1 Bft) W-NW 292 13,2 C 18,1 C
01.07.2012 23:21 17,9 C 73 % 1019,4 hPa 0,0 l/m 2,5 km/h (1 Bft) NW 315 13,0 C 17,9 C
01.07.2012 23:26 17,8 C 74 % 1019,5 hPa 0,0 l/m 2,5 km/h (1 Bft) W-NW 292 13,1 C 17,8 C
01.07.2012 23:31 17,6 C 74 % 1019,5 hPa 0,0 l/m 3,2 km/h (1 Bft) W-NW 292 12,9 C 17,6 C
01.07.2012 23:36 17,6 C 74 % 1019,6 hPa 0,0 l/m 3,6 km/h (1 Bft) W-NW 292 12,9 C 17,6 C
01.07.2012 23:41 17,5 C 75 % 1019,7 hPa 0,0 l/m 2,2 km/h (1 Bft) W-NW 292 13,0 C 17,5 C
01.07.2012 23:46 17,4 C 75 % 1019,7 hPa 0,0 l/m 4,0 km/h (1 Bft) NW 315 12,9 C 17,4 C
01.07.2012 23:51 17,3 C 75 % 1019,8 hPa 0,0 l/m 2,5 km/h (1 Bft) W 270 12,8 C 17,3 C
01.07.2012 23:56 17,3 C 75 % 1019,8 hPa 0,0 l/m 4,3 km/h (1 Bft) W-NW 292 12,8 C 17,3 C
_ Min-Zeit 23:51 16:16 02:46 - 00:01 - - 23:51 23:51
Minimum _ 17,3 C 51 % 1009,9 hPa - 0,0 km/h (0 Bft) - - 12,8 C 17,3 C
_ Max-Zeit 15:46 05:01 23:51 03:36 03:26 - - 08:41 15:46
Maximum _ 25,1 C 88 % 1019,8 hPa 10,9 l/m 25,6 km/h
S-SO (4 Bft)
- - 19,0 C 25,1 C
Durchschnitt _ 21,5 C 70 % 1014,4 hPa #21,8 l/m 6,0 km/h (2 Bft) W - 15,5 C 21,5 C
(c) by David Heller